Terminal Aerodrome Forecast
Issued by NWS Upton, NY

Home | Current Version | Previous Version | Text Only | Print | Product List | Glossary On
Versions: 1 2 3 4 5 6 7 8 9 10 11 12 13 14 15 16 17 18 19 20 21 22 23 24 25 26 27 28 29 30 31 32 33
000
FTUS41 KOKX 252328
TAFJFK
TAF
KJFK 252328Z 2600/2706 36004KT 6SM BR OVC006
     FM260200 VRB03KT 3SM BR OVC006
      TEMPO 2603/2607 1SM BR SCT006 OVC200
     FM260700 30004KT 4SM BR OVC200
     FM260900 32005KT P6SM OVC200
     FM261500 31010G16KT P6SM BKN120 OVC200
     FM261800 27010G16KT P6SM BKN120
     FM262200 27010KT P6SM SKC
     FM270300 31008KT P6SM SKC=

USA.gov is the U.S. government's official web portal to all federal, state and local government web resources and services.